sensor_id;sensor_type;location;lat;lon;timestamp;P1;durP1;ratioP1;P2;durP2;ratioP2
20976;SDS011;10647;51.016;3.720;2022-12-07T00:02:08;26.97;;;12.63;;
20976;SDS011;10647;51.016;3.720;2022-12-07T00:04:36;23.50;;;11.30;;
20976;SDS011;10647;51.016;3.720;2022-12-07T00:09:54;22.23;;;10.47;;
20976;SDS011;10647;51.016;3.720;2022-12-07T00:15:03;23.00;;;11.23;;
20976;SDS011;10647;51.016;3.720;2022-12-07T00:17:34;19.20;;;9.87;;
20976;SDS011;10647;51.016;3.720;2022-12-07T00:20:02;23.00;;;9.67;;
20976;SDS011;10647;51.016;3.720;2022-12-07T00:22:30;21.23;;;8.60;;
20976;SDS011;10647;51.016;3.720;2022-12-07T00:24:57;15.90;;;6.53;;
20976;SDS011;10647;51.016;3.720;2022-12-07T00:27:27;14.63;;;5.43;;
20976;SDS011;10647;51.016;3.720;2022-12-07T00:29:57;14.00;;;4.87;;
20976;SDS011;10647;51.016;3.720;2022-12-07T00:32:25;14.40;;;5.80;;
20976;SDS011;10647;51.016;3.720;2022-12-07T00:34:56;14.60;;;5.57;;
20976;SDS011;10647;51.016;3.720;2022-12-07T00:37:25;16.30;;;5.17;;
20976;SDS011;10647;51.016;3.720;2022-12-07T00:39:52;10.90;;;4.70;;
20976;SDS011;10647;51.016;3.720;2022-12-07T00:42:20;15.17;;;5.20;;
20976;SDS011;10647;51.016;3.720;2022-12-07T00:44:53;15.13;;;4.70;;
20976;SDS011;10647;51.016;3.720;2022-12-07T00:47:23;16.67;;;4.77;;
20976;SDS011;10647;51.016;3.720;2022-12-07T00:49:50;13.30;;;4.67;;
20976;SDS011;10647;51.016;3.720;2022-12-07T00:52:18;12.17;;;4.50;;
20976;SDS011;10647;51.016;3.720;2022-12-07T00:54:45;15.73;;;5.30;;
20976;SDS011;10647;51.016;3.720;2022-12-07T00:57:18;13.10;;;5.33;;
20976;SDS011;10647;51.016;3.720;2022-12-07T00:59:46;12.93;;;5.10;;
20976;SDS011;10647;51.016;3.720;2022-12-07T01:02:14;14.50;;;6.13;;
20976;SDS011;10647;51.016;3.720;2022-12-07T01:04:42;15.03;;;5.77;;
20976;SDS011;10647;51.016;3.720;2022-12-07T01:07:09;15.23;;;6.47;;
20976;SDS011;10647;51.016;3.720;2022-12-07T01:09:38;10.30;;;4.93;;
20976;SDS011;10647;51.016;3.720;2022-12-07T01:12:05;21.03;;;7.03;;
20976;SDS011;10647;51.016;3.720;2022-12-07T01:14:33;19.47;;;7.20;;
20976;SDS011;10647;51.016;3.720;2022-12-07T01:17:01;16.77;;;6.80;;
20976;SDS011;10647;51.016;3.720;2022-12-07T01:19:29;19.37;;;7.87;;
20976;SDS011;10647;51.016;3.720;2022-12-07T01:21:56;20.00;;;7.73;;
20976;SDS011;10647;51.016;3.720;2022-12-07T01:24:25;21.30;;;7.83;;
20976;SDS011;10647;51.016;3.720;2022-12-07T01:26:52;20.57;;;8.77;;
20976;SDS011;10647;51.016;3.720;2022-12-07T01:29:20;20.73;;;8.43;;
20976;SDS011;10647;51.016;3.720;2022-12-07T01:31:48;23.60;;;9.43;;
20976;SDS011;10647;51.016;3.720;2022-12-07T01:34:16;23.30;;;10.10;;
20976;SDS011;10647;51.016;3.720;2022-12-07T01:36:45;25.20;;;10.40;;
20976;SDS011;10647;51.016;3.720;2022-12-07T01:39:13;21.63;;;10.17;;
20976;SDS011;10647;51.016;3.720;2022-12-07T01:41:41;25.33;;;10.07;;
20976;SDS011;10647;51.016;3.720;2022-12-07T01:44:25;22.63;;;9.77;;
20976;SDS011;10647;51.016;3.720;2022-12-07T01:47:02;23.93;;;9.77;;
20976;SDS011;10647;51.016;3.720;2022-12-07T01:55:12;27.87;;;10.83;;
20976;SDS011;10647;51.016;3.720;2022-12-07T01:57:43;26.27;;;11.70;;
20976;SDS011;10647;51.016;3.720;2022-12-07T02:00:31;30.80;;;12.23;;
20976;SDS011;10647;51.016;3.720;2022-12-07T02:05:40;32.50;;;12.47;;
20976;SDS011;10647;51.016;3.720;2022-12-07T02:08:14;33.20;;;13.47;;
20976;SDS011;10647;51.016;3.720;2022-12-07T02:10:43;28.27;;;13.37;;
20976;SDS011;10647;51.016;3.720;2022-12-07T02:13:18;33.50;;;13.33;;
20976;SDS011;10647;51.016;3.720;2022-12-07T02:16:06;32.03;;;13.33;;
20976;SDS011;10647;51.016;3.720;2022-12-07T02:30:17;33.13;;;13.83;;
20976;SDS011;10647;51.016;3.720;2022-12-07T02:32:59;34.57;;;13.97;;
20976;SDS011;10647;51.016;3.720;2022-12-07T02:36:01;38.07;;;14.03;;
20976;SDS011;10647;51.016;3.720;2022-12-07T02:38:50;34.37;;;14.37;;
20976;SDS011;10647;51.016;3.720;2022-12-07T02:41:20;35.33;;;14.27;;
20976;SDS011;10647;51.016;3.720;2022-12-07T02:44:13;36.57;;;14.50;;
20976;SDS011;10647;51.016;3.720;2022-12-07T02:46:44;37.90;;;14.97;;
20976;SDS011;10647;51.016;3.720;2022-12-07T02:49:24;33.40;;;14.93;;
20976;SDS011;10647;51.016;3.720;2022-12-07T02:52:12;44.33;;;15.67;;
20976;SDS011;10647;51.016;3.720;2022-12-07T02:54:40;42.13;;;17.07;;
20976;SDS011;10647;51.016;3.720;2022-12-07T03:00:08;41.93;;;17.77;;
20976;SDS011;10647;51.016;3.720;2022-12-07T03:02:50;42.07;;;17.77;;
20976;SDS011;10647;51.016;3.720;2022-12-07T03:05:58;40.97;;;16.77;;
20976;SDS011;10647;51.016;3.720;2022-12-07T03:08:44;39.97;;;15.60;;
20976;SDS011;10647;51.016;3.720;2022-12-07T03:11:20;36.53;;;16.13;;
20976;SDS011;10647;51.016;3.720;2022-12-07T03:13:55;33.77;;;14.50;;
20976;SDS011;10647;51.016;3.720;2022-12-07T03:19:26;32.40;;;12.33;;
20976;SDS011;10647;51.016;3.720;2022-12-07T03:21:59;40.37;;;14.93;;
20976;SDS011;10647;51.016;3.720;2022-12-07T03:27:24;33.50;;;13.90;;
20976;SDS011;10647;51.016;3.720;2022-12-07T03:29:56;32.30;;;14.57;;
20976;SDS011;10647;51.016;3.720;2022-12-07T03:32:30;30.30;;;12.00;;
20976;SDS011;10647;51.016;3.720;2022-12-07T03:38:15;26.57;;;10.07;;
20976;SDS011;10647;51.016;3.720;2022-12-07T03:40:58;31.30;;;11.40;;
20976;SDS011;10647;51.016;3.720;2022-12-07T03:43:41;30.63;;;10.73;;
20976;SDS011;10647;51.016;3.720;2022-12-07T03:57:51;22.00;;;9.03;;
20976;SDS011;10647;51.016;3.720;2022-12-07T04:00:22;25.73;;;9.13;;
20976;SDS011;10647;51.016;3.720;2022-12-07T04:02:55;25.90;;;10.20;;
20976;SDS011;10647;51.016;3.720;2022-12-07T04:05:19;25.23;;;9.00;;
20976;SDS011;10647;51.016;3.720;2022-12-07T04:07:52;24.07;;;8.73;;
20976;SDS011;10647;51.016;3.720;2022-12-07T04:10:20;28.70;;;9.17;;
20976;SDS011;10647;51.016;3.720;2022-12-07T04:12:47;21.77;;;9.50;;
20976;SDS011;10647;51.016;3.720;2022-12-07T04:15:15;24.33;;;8.80;;
20976;SDS011;10647;51.016;3.720;2022-12-07T04:17:42;31.23;;;9.60;;
20976;SDS011;10647;51.016;3.720;2022-12-07T04:20:16;27.30;;;9.83;;
20976;SDS011;10647;51.016;3.720;2022-12-07T04:25:14;21.80;;;9.67;;
20976;SDS011;10647;51.016;3.720;2022-12-07T04:27:42;25.43;;;9.47;;
20976;SDS011;10647;51.016;3.720;2022-12-07T04:30:10;28.73;;;9.37;;
20976;SDS011;10647;51.016;3.720;2022-12-07T04:32:40;21.83;;;9.97;;
20976;SDS011;10647;51.016;3.720;2022-12-07T04:35:07;30.17;;;11.10;;
20976;SDS011;10647;51.016;3.720;2022-12-07T04:37:35;29.97;;;11.40;;
20976;SDS011;10647;51.016;3.720;2022-12-07T04:40:07;31.03;;;11.60;;
20976;SDS011;10647;51.016;3.720;2022-12-07T04:42:37;28.27;;;10.33;;
20976;SDS011;10647;51.016;3.720;2022-12-07T04:47:35;38.80;;;12.77;;
20976;SDS011;10647;51.016;3.720;2022-12-07T04:50:03;25.70;;;10.43;;
20976;SDS011;10647;51.016;3.720;2022-12-07T04:52:31;32.40;;;10.97;;
20976;SDS011;10647;51.016;3.720;2022-12-07T04:55:01;31.63;;;10.53;;
20976;SDS011;10647;51.016;3.720;2022-12-07T04:57:29;29.27;;;10.13;;
20976;SDS011;10647;51.016;3.720;2022-12-07T04:59:58;24.17;;;8.90;;
20976;SDS011;10647;51.016;3.720;2022-12-07T05:02:27;27.10;;;10.07;;
20976;SDS011;10647;51.016;3.720;2022-12-07T05:05:00;25.03;;;9.23;;
20976;SDS011;10647;51.016;3.720;2022-12-07T05:07:28;26.10;;;9.23;;
20976;SDS011;10647;51.016;3.720;2022-12-07T05:09:55;23.03;;;9.30;;
20976;SDS011;10647;51.016;3.720;2022-12-07T05:12:24;31.73;;;10.80;;
20976;SDS011;10647;51.016;3.720;2022-12-07T05:17:38;24.83;;;6.53;;
20976;SDS011;10647;51.016;3.720;2022-12-07T05:20:06;25.27;;;7.97;;
20976;SDS011;10647;51.016;3.720;2022-12-07T05:25:05;25.90;;;6.50;;
20976;SDS011;10647;51.016;3.720;2022-12-07T05:27:38;30.90;;;8.87;;
20976;SDS011;10647;51.016;3.720;2022-12-07T05:32:53;25.43;;;8.17;;
20976;SDS011;10647;51.016;3.720;2022-12-07T05:35:21;26.40;;;8.40;;
20976;SDS011;10647;51.016;3.720;2022-12-07T05:37:49;31.73;;;8.17;;
20976;SDS011;10647;51.016;3.720;2022-12-07T05:40:17;25.93;;;8.20;;
20976;SDS011;10647;51.016;3.720;2022-12-07T05:42:47;29.53;;;8.53;;
20976;SDS011;10647;51.016;3.720;2022-12-07T05:45:15;32.27;;;9.27;;
20976;SDS011;10647;51.016;3.720;2022-12-07T05:47:43;36.63;;;9.13;;
20976;SDS011;10647;51.016;3.720;2022-12-07T05:50:10;28.70;;;9.20;;
20976;SDS011;10647;51.016;3.720;2022-12-07T05:52:37;29.43;;;8.80;;
20976;SDS011;10647;51.016;3.720;2022-12-07T05:55:11;31.07;;;9.20;;
20976;SDS011;10647;51.016;3.720;2022-12-07T05:57:38;28.57;;;9.33;;
20976;SDS011;10647;51.016;3.720;2022-12-07T06:00:08;37.03;;;9.20;;
20976;SDS011;10647;51.016;3.720;2022-12-07T06:02:39;29.57;;;9.70;;
20976;SDS011;10647;51.016;3.720;2022-12-07T06:05:07;38.80;;;9.77;;
20976;SDS011;10647;51.016;3.720;2022-12-07T06:07:35;38.47;;;10.43;;
20976;SDS011;10647;51.016;3.720;2022-12-07T06:10:03;42.43;;;10.97;;
20976;SDS011;10647;51.016;3.720;2022-12-07T06:12:31;36.27;;;11.33;;
20976;SDS011;10647;51.016;3.720;2022-12-07T06:15:01;28.73;;;11.57;;
20976;SDS011;10647;51.016;3.720;2022-12-07T06:17:29;41.73;;;14.23;;
20976;SDS011;10647;51.016;3.720;2022-12-07T06:20:02;35.90;;;12.33;;
20976;SDS011;10647;51.016;3.720;2022-12-07T06:22:31;28.43;;;11.43;;
20976;SDS011;10647;51.016;3.720;2022-12-07T06:24:59;35.00;;;12.17;;
20976;SDS011;10647;51.016;3.720;2022-12-07T06:27:27;25.30;;;10.70;;
20976;SDS011;10647;51.016;3.720;2022-12-07T06:29:54;32.40;;;11.07;;
20976;SDS011;10647;51.016;3.720;2022-12-07T06:32:25;33.13;;;10.27;;
20976;SDS011;10647;51.016;3.720;2022-12-07T06:34:54;27.50;;;11.70;;
20976;SDS011;10647;51.016;3.720;2022-12-07T06:37:21;36.93;;;12.57;;
20976;SDS011;10647;51.016;3.720;2022-12-07T06:39:48;41.40;;;13.00;;
20976;SDS011;10647;51.016;3.720;2022-12-07T06:42:16;34.73;;;12.97;;
20976;SDS011;10647;51.016;3.720;2022-12-07T06:44:43;33.03;;;13.60;;
20976;SDS011;10647;51.016;3.720;2022-12-07T06:47:11;38.53;;;13.30;;
20976;SDS011;10647;51.016;3.720;2022-12-07T06:49:39;36.37;;;12.70;;
20976;SDS011;10647;51.016;3.720;2022-12-07T06:52:06;36.83;;;12.20;;
20976;SDS011;10647;51.016;3.720;2022-12-07T06:54:34;36.50;;;13.73;;
20976;SDS011;10647;51.016;3.720;2022-12-07T06:57:02;35.90;;;12.97;;
20976;SDS011;10647;51.016;3.720;2022-12-07T06:59:29;36.93;;;13.20;;
20976;SDS011;10647;51.016;3.720;2022-12-07T07:01:59;37.73;;;13.13;;
20976;SDS011;10647;51.016;3.720;2022-12-07T07:04:26;34.33;;;13.30;;
20976;SDS011;10647;51.016;3.720;2022-12-07T07:06:54;31.80;;;13.30;;
20976;SDS011;10647;51.016;3.720;2022-12-07T07:09:21;31.30;;;11.97;;
20976;SDS011;10647;51.016;3.720;2022-12-07T07:11:49;32.17;;;12.43;;
20976;SDS011;10647;51.016;3.720;2022-12-07T07:14:16;32.17;;;13.10;;
20976;SDS011;10647;51.016;3.720;2022-12-07T07:16:45;33.13;;;12.30;;
20976;SDS011;10647;51.016;3.720;2022-12-07T07:19:12;31.13;;;12.43;;
20976;SDS011;10647;51.016;3.720;2022-12-07T07:21:40;25.40;;;11.33;;
20976;SDS011;10647;51.016;3.720;2022-12-07T07:24:07;28.97;;;11.10;;
20976;SDS011;10647;51.016;3.720;2022-12-07T07:26:35;37.27;;;12.10;;
20976;SDS011;10647;51.016;3.720;2022-12-07T07:29:02;34.27;;;12.00;;
20976;SDS011;10647;51.016;3.720;2022-12-07T07:31:30;36.80;;;11.60;;
20976;SDS011;10647;51.016;3.720;2022-12-07T07:33:57;27.33;;;11.27;;
20976;SDS011;10647;51.016;3.720;2022-12-07T07:36:25;36.73;;;13.43;;
20976;SDS011;10647;51.016;3.720;2022-12-07T07:38:52;33.27;;;10.97;;
20976;SDS011;10647;51.016;3.720;2022-12-07T07:41:21;29.10;;;11.43;;
20976;SDS011;10647;51.016;3.720;2022-12-07T07:43:48;33.40;;;11.87;;
20976;SDS011;10647;51.016;3.720;2022-12-07T07:46:16;26.93;;;10.77;;
20976;SDS011;10647;51.016;3.720;2022-12-07T07:48:43;34.27;;;11.90;;
20976;SDS011;10647;51.016;3.720;2022-12-07T07:51:11;35.97;;;11.17;;
20976;SDS011;10647;51.016;3.720;2022-12-07T07:53:38;28.37;;;11.43;;
20976;SDS011;10647;51.016;3.720;2022-12-07T07:56:06;33.00;;;11.93;;
20976;SDS011;10647;51.016;3.720;2022-12-07T07:58:33;33.33;;;13.27;;
20976;SDS011;10647;51.016;3.720;2022-12-07T08:01:05;32.70;;;12.93;;
20976;SDS011;10647;51.016;3.720;2022-12-07T08:03:34;36.27;;;12.13;;
20976;SDS011;10647;51.016;3.720;2022-12-07T08:06:02;33.80;;;13.17;;
20976;SDS011;10647;51.016;3.720;2022-12-07T08:08:31;33.20;;;12.73;;
20976;SDS011;10647;51.016;3.720;2022-12-07T08:10:58;33.57;;;13.10;;
20976;SDS011;10647;51.016;3.720;2022-12-07T08:13:31;34.87;;;14.10;;
20976;SDS011;10647;51.016;3.720;2022-12-07T08:15:59;28.80;;;13.60;;
20976;SDS011;10647;51.016;3.720;2022-12-07T08:18:34;37.43;;;14.20;;
20976;SDS011;10647;51.016;3.720;2022-12-07T08:21:06;37.17;;;14.33;;
20976;SDS011;10647;51.016;3.720;2022-12-07T08:23:41;30.53;;;12.93;;
20976;SDS011;10647;51.016;3.720;2022-12-07T08:26:10;37.13;;;13.07;;
20976;SDS011;10647;51.016;3.720;2022-12-07T08:28:39;34.77;;;13.13;;
20976;SDS011;10647;51.016;3.720;2022-12-07T08:31:11;32.00;;;11.33;;
20976;SDS011;10647;51.016;3.720;2022-12-07T08:33:40;31.90;;;10.83;;
20976;SDS011;10647;51.016;3.720;2022-12-07T08:36:09;23.37;;;8.73;;
20976;SDS011;10647;51.016;3.720;2022-12-07T08:38:39;30.10;;;9.83;;
20976;SDS011;10647;51.016;3.720;2022-12-07T08:41:07;25.67;;;9.70;;
20976;SDS011;10647;51.016;3.720;2022-12-07T08:43:35;24.27;;;9.77;;
20976;SDS011;10647;51.016;3.720;2022-12-07T08:46:05;27.80;;;10.57;;
20976;SDS011;10647;51.016;3.720;2022-12-07T08:48:41;29.03;;;10.53;;
20976;SDS011;10647;51.016;3.720;2022-12-07T08:51:09;24.03;;;11.03;;
20976;SDS011;10647;51.016;3.720;2022-12-07T08:53:37;27.13;;;10.00;;
20976;SDS011;10647;51.016;3.720;2022-12-07T08:56:06;32.27;;;10.63;;
20976;SDS011;10647;51.016;3.720;2022-12-07T08:58:34;23.77;;;10.17;;
20976;SDS011;10647;51.016;3.720;2022-12-07T09:01:03;29.87;;;10.13;;
20976;SDS011;10647;51.016;3.720;2022-12-07T09:03:31;22.37;;;9.10;;
20976;SDS011;10647;51.016;3.720;2022-12-07T09:05:59;26.60;;;9.93;;
20976;SDS011;10647;51.016;3.720;2022-12-07T09:08:29;23.20;;;9.23;;
20976;SDS011;10647;51.016;3.720;2022-12-07T09:11:00;27.33;;;9.63;;
20976;SDS011;10647;51.016;3.720;2022-12-07T09:13:28;22.60;;;9.10;;
20976;SDS011;10647;51.016;3.720;2022-12-07T09:15:55;26.27;;;9.00;;
20976;SDS011;10647;51.016;3.720;2022-12-07T09:18:23;17.33;;;8.20;;
20976;SDS011;10647;51.016;3.720;2022-12-07T09:20:51;20.17;;;8.00;;
20976;SDS011;10647;51.016;3.720;2022-12-07T09:23:18;21.20;;;7.63;;
20976;SDS011;10647;51.016;3.720;2022-12-07T09:25:46;22.63;;;8.90;;
20976;SDS011;10647;51.016;3.720;2022-12-07T09:28:13;22.03;;;7.37;;
20976;SDS011;10647;51.016;3.720;2022-12-07T09:30:47;22.23;;;7.37;;
20976;SDS011;10647;51.016;3.720;2022-12-07T09:33:35;18.93;;;6.47;;
20976;SDS011;10647;51.016;3.720;2022-12-07T09:36:03;20.73;;;6.70;;
20976;SDS011;10647;51.016;3.720;2022-12-07T09:38:31;20.73;;;4.67;;
20976;SDS011;10647;51.016;3.720;2022-12-07T09:41:03;17.10;;;5.87;;
20976;SDS011;10647;51.016;3.720;2022-12-07T09:43:32;17.70;;;5.30;;
20976;SDS011;10647;51.016;3.720;2022-12-07T09:46:01;15.70;;;3.50;;
20976;SDS011;10647;51.016;3.720;2022-12-07T09:48:33;15.67;;;4.57;;
20976;SDS011;10647;51.016;3.720;2022-12-07T09:51:22;13.90;;;3.97;;
20976;SDS011;10647;51.016;3.720;2022-12-07T09:53:56;14.57;;;3.77;;
20976;SDS011;10647;51.016;3.720;2022-12-07T09:56:20;14.87;;;4.20;;
20976;SDS011;10647;51.016;3.720;2022-12-07T09:58:50;13.97;;;4.87;;
20976;SDS011;10647;51.016;3.720;2022-12-07T10:01:21;19.37;;;4.73;;
20976;SDS011;10647;51.016;3.720;2022-12-07T10:03:54;22.67;;;4.90;;
20976;SDS011;10647;51.016;3.720;2022-12-07T10:06:19;22.10;;;4.50;;
20976;SDS011;10647;51.016;3.720;2022-12-07T10:08:47;17.17;;;4.70;;
20976;SDS011;10647;51.016;3.720;2022-12-07T10:11:35;16.47;;;5.43;;
20976;SDS011;10647;51.016;3.720;2022-12-07T10:14:12;22.47;;;5.13;;
20976;SDS011;10647;51.016;3.720;2022-12-07T10:16:41;22.47;;;5.37;;
20976;SDS011;10647;51.016;3.720;2022-12-07T10:19:28;19.30;;;5.50;;
20976;SDS011;10647;51.016;3.720;2022-12-07T10:22:02;26.40;;;6.57;;
20976;SDS011;10647;51.016;3.720;2022-12-07T10:24:31;22.97;;;5.37;;
20976;SDS011;10647;51.016;3.720;2022-12-07T10:26:59;21.07;;;5.23;;
20976;SDS011;10647;51.016;3.720;2022-12-07T10:34:45;15.27;;;5.03;;
20976;SDS011;10647;51.016;3.720;2022-12-07T10:45:15;17.90;;;5.50;;
20976;SDS011;10647;51.016;3.720;2022-12-07T10:48:02;22.47;;;6.57;;
20976;SDS011;10647;51.016;3.720;2022-12-07T11:01:43;20.87;;;6.23;;
20976;SDS011;10647;51.016;3.720;2022-12-07T11:04:33;18.67;;;6.03;;
20976;SDS011;10647;51.016;3.720;2022-12-07T11:10:33;19.57;;;5.77;;
20976;SDS011;10647;51.016;3.720;2022-12-07T11:13:18;16.53;;;6.37;;
20976;SDS011;10647;51.016;3.720;2022-12-07T11:15:51;17.67;;;5.90;;
20976;SDS011;10647;51.016;3.720;2022-12-07T11:18:37;20.47;;;7.43;;
20976;SDS011;10647;51.016;3.720;2022-12-07T11:21:30;16.50;;;6.43;;
20976;SDS011;10647;51.016;3.720;2022-12-07T11:24:17;22.43;;;6.50;;
20976;SDS011;10647;51.016;3.720;2022-12-07T11:26:54;24.77;;;6.17;;
20976;SDS011;10647;51.016;3.720;2022-12-07T11:29:44;16.63;;;5.50;;
20976;SDS011;10647;51.016;3.720;2022-12-07T11:32:51;21.60;;;5.93;;
20976;SDS011;10647;51.016;3.720;2022-12-07T11:38:28;19.63;;;5.73;;
20976;SDS011;10647;51.016;3.720;2022-12-07T11:41:00;16.63;;;5.97;;
20976;SDS011;10647;51.016;3.720;2022-12-07T11:43:32;19.17;;;5.70;;
20976;SDS011;10647;51.016;3.720;2022-12-07T11:48:49;20.17;;;5.50;;
20976;SDS011;10647;51.016;3.720;2022-12-07T11:51:20;15.17;;;4.27;;
20976;SDS011;10647;51.016;3.720;2022-12-07T11:53:51;14.53;;;4.30;;
20976;SDS011;10647;51.016;3.720;2022-12-07T11:56:37;13.83;;;3.67;;
20976;SDS011;10647;51.016;3.720;2022-12-07T11:59:12;14.23;;;4.27;;
20976;SDS011;10647;51.016;3.720;2022-12-07T12:01:52;9.83;;;3.53;;
20976;SDS011;10647;51.016;3.720;2022-12-07T12:07:32;7.40;;;3.20;;
20976;SDS011;10647;51.016;3.720;2022-12-07T12:10:13;12.90;;;3.50;;
20976;SDS011;10647;51.016;3.720;2022-12-07T12:23:43;13.23;;;4.80;;
20976;SDS011;10647;51.016;3.720;2022-12-07T12:26:19;13.97;;;4.80;;
20976;SDS011;10647;51.016;3.720;2022-12-07T12:29:07;16.07;;;5.67;;
20976;SDS011;10647;51.016;3.720;2022-12-07T12:34:57;16.97;;;5.37;;
20976;SDS011;10647;51.016;3.720;2022-12-07T12:37:39;12.33;;;5.30;;
20976;SDS011;10647;51.016;3.720;2022-12-07T12:42:50;19.63;;;4.63;;
20976;SDS011;10647;51.016;3.720;2022-12-07T12:45:27;12.27;;;4.17;;
20976;SDS011;10647;51.016;3.720;2022-12-07T12:48:02;13.50;;;3.93;;
20976;SDS011;10647;51.016;3.720;2022-12-07T12:50:47;14.40;;;3.60;;
20976;SDS011;10647;51.016;3.720;2022-12-07T12:53:22;17.87;;;3.60;;
20976;SDS011;10647;51.016;3.720;2022-12-07T12:56:10;17.40;;;3.97;;
20976;SDS011;10647;51.016;3.720;2022-12-07T12:58:41;11.00;;;3.40;;
20976;SDS011;10647;51.016;3.720;2022-12-07T13:04:25;12.07;;;3.90;;
20976;SDS011;10647;51.016;3.720;2022-12-07T13:06:57;17.07;;;4.10;;
20976;SDS011;10647;51.016;3.720;2022-12-07T13:09:26;9.63;;;3.50;;
20976;SDS011;10647;51.016;3.720;2022-12-07T13:11:56;12.80;;;3.70;;
20976;SDS011;10647;51.016;3.720;2022-12-07T13:14:55;10.50;;;3.60;;
20976;SDS011;10647;51.016;3.720;2022-12-07T13:20:44;9.27;;;3.10;;
20976;SDS011;10647;51.016;3.720;2022-12-07T13:23:08;7.73;;;3.03;;
20976;SDS011;10647;51.016;3.720;2022-12-07T13:26:24;10.43;;;3.00;;
20976;SDS011;10647;51.016;3.720;2022-12-07T13:28:15;10.20;;;3.43;;
20976;SDS011;10647;51.016;3.720;2022-12-07T13:33:15;10.60;;;3.67;;
20976;SDS011;10647;51.016;3.720;2022-12-07T13:35:45;13.17;;;3.90;;
20976;SDS011;10647;51.016;3.720;2022-12-07T13:38:23;12.00;;;3.90;;
20976;SDS011;10647;51.016;3.720;2022-12-07T13:41:17;13.17;;;3.70;;
20976;SDS011;10647;51.016;3.720;2022-12-07T13:47:04;14.23;;;3.83;;
20976;SDS011;10647;51.016;3.720;2022-12-07T13:49:49;11.80;;;3.47;;
20976;SDS011;10647;51.016;3.720;2022-12-07T13:52:24;7.67;;;3.73;;
20976;SDS011;10647;51.016;3.720;2022-12-07T13:55:18;10.30;;;3.50;;
20976;SDS011;10647;51.016;3.720;2022-12-07T13:57:51;9.00;;;2.90;;
20976;SDS011;10647;51.016;3.720;2022-12-07T14:00:39;9.60;;;2.60;;
20976;SDS011;10647;51.016;3.720;2022-12-07T14:06:15;8.57;;;2.77;;
20976;SDS011;10647;51.016;3.720;2022-12-07T14:08:44;8.43;;;1.97;;
20976;SDS011;10647;51.016;3.720;2022-12-07T14:11:16;8.17;;;2.33;;
20976;SDS011;10647;51.016;3.720;2022-12-07T14:13:58;8.67;;;2.20;;
20976;SDS011;10647;51.016;3.720;2022-12-07T14:22:22;5.83;;;1.60;;
20976;SDS011;10647;51.016;3.720;2022-12-07T14:25:17;7.40;;;1.90;;
20976;SDS011;10647;51.016;3.720;2022-12-07T14:27:55;6.53;;;1.80;;
20976;SDS011;10647;51.016;3.720;2022-12-07T14:30:25;12.30;;;1.50;;
20976;SDS011;10647;51.016;3.720;2022-12-07T14:35:46;5.83;;;1.60;;
20976;SDS011;10647;51.016;3.720;2022-12-07T14:38:13;5.67;;;1.10;;
20976;SDS011;10647;51.016;3.720;2022-12-07T14:40:42;5.37;;;1.90;;
20976;SDS011;10647;51.016;3.720;2022-12-07T14:43:10;6.50;;;1.63;;
20976;SDS011;10647;51.016;3.720;2022-12-07T14:45:39;9.23;;;1.87;;
20976;SDS011;10647;51.016;3.720;2022-12-07T14:48:14;9.23;;;1.80;;
20976;SDS011;10647;51.016;3.720;2022-12-07T14:50:40;5.87;;;2.00;;
20976;SDS011;10647;51.016;3.720;2022-12-07T14:53:18;9.23;;;1.83;;
20976;SDS011;10647;51.016;3.720;2022-12-07T14:55:48;5.03;;;1.97;;
20976;SDS011;10647;51.016;3.720;2022-12-07T15:01:03;8.50;;;1.33;;
20976;SDS011;10647;51.016;3.720;2022-12-07T15:03:30;8.83;;;1.50;;
20976;SDS011;10647;51.016;3.720;2022-12-07T15:06:00;8.27;;;1.80;;
20976;SDS011;10647;51.016;3.720;2022-12-07T15:08:29;6.63;;;1.40;;
20976;SDS011;10647;51.016;3.720;2022-12-07T15:11:03;9.87;;;2.33;;
20976;SDS011;10647;51.016;3.720;2022-12-07T15:13:33;8.43;;;1.73;;
20976;SDS011;10647;51.016;3.720;2022-12-07T15:16:19;8.50;;;2.03;;
20976;SDS011;10647;51.016;3.720;2022-12-07T15:18:48;5.83;;;1.60;;
20976;SDS011;10647;51.016;3.720;2022-12-07T15:21:16;7.87;;;1.70;;
20976;SDS011;10647;51.016;3.720;2022-12-07T15:23:45;10.97;;;2.50;;
20976;SDS011;10647;51.016;3.720;2022-12-07T15:26:16;7.13;;;2.10;;
20976;SDS011;10647;51.016;3.720;2022-12-07T15:28:44;6.87;;;2.30;;
20976;SDS011;10647;51.016;3.720;2022-12-07T15:31:12;12.30;;;2.30;;
20976;SDS011;10647;51.016;3.720;2022-12-07T15:33:42;9.80;;;3.00;;
20976;SDS011;10647;51.016;3.720;2022-12-07T15:36:18;5.93;;;2.10;;
20976;SDS011;10647;51.016;3.720;2022-12-07T15:38:43;8.87;;;2.67;;
20976;SDS011;10647;51.016;3.720;2022-12-07T15:41:11;11.43;;;2.87;;
20976;SDS011;10647;51.016;3.720;2022-12-07T15:43:39;9.23;;;2.90;;
20976;SDS011;10647;51.016;3.720;2022-12-07T15:46:28;7.37;;;2.83;;
20976;SDS011;10647;51.016;3.720;2022-12-07T15:49:00;12.17;;;3.17;;
20976;SDS011;10647;51.016;3.720;2022-12-07T15:51:29;10.87;;;3.37;;
20976;SDS011;10647;51.016;3.720;2022-12-07T15:53:57;9.10;;;2.93;;
20976;SDS011;10647;51.016;3.720;2022-12-07T15:56:25;10.73;;;3.73;;
20976;SDS011;10647;51.016;3.720;2022-12-07T16:01:41;15.27;;;3.53;;
20976;SDS011;10647;51.016;3.720;2022-12-07T16:04:09;15.83;;;3.63;;
20976;SDS011;10647;51.016;3.720;2022-12-07T16:09:24;10.53;;;3.93;;
20976;SDS011;10647;51.016;3.720;2022-12-07T16:11:54;15.73;;;3.97;;
20976;SDS011;10647;51.016;3.720;2022-12-07T16:14:24;13.67;;;4.10;;
20976;SDS011;10647;51.016;3.720;2022-12-07T16:16:51;11.30;;;4.63;;
20976;SDS011;10647;51.016;3.720;2022-12-07T16:19:19;10.37;;;4.53;;
20976;SDS011;10647;51.016;3.720;2022-12-07T16:21:47;12.30;;;4.50;;
20976;SDS011;10647;51.016;3.720;2022-12-07T16:24:14;17.07;;;5.40;;
20976;SDS011;10647;51.016;3.720;2022-12-07T16:26:42;15.97;;;4.97;;
20976;SDS011;10647;51.016;3.720;2022-12-07T16:29:11;12.90;;;5.00;;
20976;SDS011;10647;51.016;3.720;2022-12-07T16:31:39;19.33;;;5.77;;
20976;SDS011;10647;51.016;3.720;2022-12-07T16:34:07;22.07;;;6.37;;
20976;SDS011;10647;51.016;3.720;2022-12-07T16:36:37;19.13;;;7.20;;
20976;SDS011;10647;51.016;3.720;2022-12-07T16:39:05;12.73;;;6.10;;
20976;SDS011;10647;51.016;3.720;2022-12-07T16:41:33;19.00;;;6.83;;
20976;SDS011;10647;51.016;3.720;2022-12-07T16:44:09;19.30;;;7.30;;
20976;SDS011;10647;51.016;3.720;2022-12-07T16:46:34;21.87;;;7.70;;
20976;SDS011;10647;51.016;3.720;2022-12-07T16:49:03;22.10;;;7.13;;
20976;SDS011;10647;51.016;3.720;2022-12-07T16:54:19;19.13;;;7.57;;
20976;SDS011;10647;51.016;3.720;2022-12-07T16:56:47;17.53;;;7.27;;
20976;SDS011;10647;51.016;3.720;2022-12-07T16:59:18;19.70;;;6.87;;
20976;SDS011;10647;51.016;3.720;2022-12-07T17:01:45;20.97;;;7.43;;
20976;SDS011;10647;51.016;3.720;2022-12-07T17:04:14;17.30;;;6.30;;
20976;SDS011;10647;51.016;3.720;2022-12-07T17:06:41;15.03;;;6.67;;
20976;SDS011;10647;51.016;3.720;2022-12-07T17:09:09;21.30;;;6.97;;
20976;SDS011;10647;51.016;3.720;2022-12-07T17:11:37;18.93;;;6.70;;
20976;SDS011;10647;51.016;3.720;2022-12-07T17:14:06;17.13;;;7.30;;
20976;SDS011;10647;51.016;3.720;2022-12-07T17:16:51;21.83;;;7.13;;
20976;SDS011;10647;51.016;3.720;2022-12-07T17:19:19;19.17;;;7.13;;
20976;SDS011;10647;51.016;3.720;2022-12-07T17:21:46;21.17;;;7.10;;
20976;SDS011;10647;51.016;3.720;2022-12-07T17:24:17;15.50;;;6.80;;
20976;SDS011;10647;51.016;3.720;2022-12-07T17:26:46;16.27;;;7.43;;
20976;SDS011;10647;51.016;3.720;2022-12-07T17:29:14;16.40;;;7.57;;